Time;durP1;ratioP1;P1;durP2;ratioP2;P2;SDS_P1;SDS_P2;PMS_P1;PMS_P2;Temp;Humidity;BMP_temperature;BMP_pressure;BME280_temperature;BME280_humidity;BME280_pressure;Samples;Min_cycle;Max_cycle;Signal;HPM_P1;HPM_P2
2020/12/18 00:01:22;;;;;;;14.48;8.18;;;6.50;99.90;;;;;;5065709;28;20036;-68
2020/12/18 00:03:48;;;;;;;15.25;7.90;;;6.50;99.90;;;;;;5097034;28;20498;-68
2020/12/18 00:06:15;;;;;;;12.63;7.43;;;6.40;99.90;;;;;;5092780;28;20024;-68
2020/12/18 00:08:40;;;;;;;16.80;8.52;;;6.40;99.90;;;;;;5092754;28;20032;-68
2020/12/18 00:11:06;;;;;;;16.63;8.43;;;6.40;99.90;;;;;;5092558;28;20081;-69
2020/12/18 00:13:31;;;;;;;20.48;9.50;;;6.40;99.90;;;;;;5091560;28;20023;-69
2020/12/18 00:15:57;;;;;;;14.73;8.18;;;6.40;99.90;;;;;;5092419;28;20028;-69
2020/12/18 00:18:22;;;;;;;24.10;7.93;;;6.40;99.90;;;;;;5092111;28;20089;-68
2020/12/18 00:20:51;;;;;;;16.77;8.20;;;6.40;99.90;;;;;;5091503;28;20444;-69
2020/12/18 00:23:17;;;;;;;18.13;8.60;;;6.30;99.90;;;;;;5091718;28;20024;-68
2020/12/18 00:25:47;;;;;;;17.52;8.85;;;6.30;99.90;;;;;;5092322;28;20040;-68
2020/12/18 00:28:16;;;;;;;19.08;8.85;;;6.30;99.90;;;;;;5091255;28;20020;-68
2020/12/18 00:30:42;;;;;;;17.48;8.70;;;6.30;99.90;;;;;;5092303;28;20024;-67
2020/12/18 00:33:08;;;;;;;18.40;10.05;;;6.30;99.90;;;;;;5077845;28;20028;-68
2020/12/18 00:35:34;;;;;;;18.00;9.60;;;6.30;99.90;;;;;;5091080;28;20027;-68
2020/12/18 00:38:00;;;;;;;15.52;9.52;;;6.30;99.90;;;;;;5080780;28;20093;-69
2020/12/18 00:40:25;;;;;;;22.45;9.25;;;6.20;99.90;;;;;;5088647;28;20028;-68
2020/12/18 00:42:51;;;;;;;18.52;10.13;;;6.20;99.90;;;;;;5091420;28;20032;-68
2020/12/18 00:45:16;;;;;;;22.85;10.32;;;6.20;99.90;;;;;;5091574;28;20031;-68
2020/12/18 00:47:42;;;;;;;21.77;10.40;;;6.20;99.90;;;;;;5092209;28;20016;-68
2020/12/18 00:50:07;;;;;;;24.02;11.27;;;6.20;99.90;;;;;;5090273;28;20016;-69
2020/12/18 00:52:33;;;;;;;21.15;10.02;;;6.30;99.90;;;;;;5091502;28;20384;-68
2020/12/18 00:54:58;;;;;;;22.80;9.93;;;6.20;99.90;;;;;;5091156;28;20117;-68
2020/12/18 00:57:25;;;;;;;19.40;10.07;;;6.30;99.90;;;;;;5091428;28;20046;-68
2020/12/18 00:59:51;;;;;;;25.58;10.40;;;6.30;99.90;;;;;;5091838;28;20024;-68
2020/12/18 01:02:16;;;;;;;18.23;10.70;;;6.20;99.90;;;;;;5090629;28;20024;-69
2020/12/18 01:04:42;;;;;;;23.30;10.68;;;6.30;99.90;;;;;;5091527;28;20074;-68
2020/12/18 01:07:07;;;;;;;20.58;11.50;;;6.20;99.90;;;;;;5091701;28;20043;-68
2020/12/18 01:09:33;;;;;;;18.85;10.90;;;6.30;99.90;;;;;;5090635;28;20012;-68
2020/12/18 01:11:59;;;;;;;18.42;9.52;;;6.30;99.90;;;;;;5091599;28;20024;-68
2020/12/18 01:14:24;;;;;;;17.30;10.13;;;6.20;99.90;;;;;;5091212;28;20419;-69
2020/12/18 01:16:54;;;;;;;23.42;11.63;;;6.20;99.90;;;;;;5090788;28;20028;-69
2020/12/18 01:19:20;;;;;;;23.00;11.75;;;6.20;99.90;;;;;;5090731;28;20031;-68
2020/12/18 01:21:47;;;;;;;26.75;11.00;;;6.20;99.90;;;;;;5091537;28;20043;-68
2020/12/18 01:24:13;;;;;;;25.38;12.02;;;6.20;99.90;;;;;;5090453;28;20388;-69
2020/12/18 01:26:38;;;;;;;22.55;11.90;;;6.20;99.90;;;;;;5091287;28;20024;-69
2020/12/18 01:29:04;;;;;;;18.40;10.60;;;6.20;99.90;;;;;;5091414;28;20024;-69
2020/12/18 01:31:30;;;;;;;22.58;10.95;;;6.20;99.90;;;;;;5090105;28;20031;-69
2020/12/18 01:33:55;;;;;;;22.83;10.38;;;6.10;99.90;;;;;;5091154;28;20025;-69
2020/12/18 01:36:21;;;;;;;23.85;10.85;;;6.20;99.90;;;;;;5090902;28;20097;-69
2020/12/18 01:38:47;;;;;;;22.15;9.98;;;6.10;99.90;;;;;;5075043;28;20103;-69
2020/12/18 01:41:13;;;;;;;26.20;10.85;;;6.10;99.90;;;;;;5090929;28;20020;-70
2020/12/18 01:43:38;;;;;;;27.88;10.63;;;6.10;99.90;;;;;;5091021;28;20043;-69
2020/12/18 01:46:12;;;;;;;21.67;10.60;;;6.10;99.90;;;;;;5090194;28;20028;-69
2020/12/18 01:48:39;;;;;;;19.17;9.77;;;6.10;99.90;;;;;;5090984;28;20054;-69
2020/12/18 01:51:07;;;;;;;18.38;10.65;;;6.10;99.90;;;;;;5075188;28;20353;-70
2020/12/18 01:53:32;;;;;;;20.33;10.13;;;6.10;99.90;;;;;;5070907;28;20157;-70
2020/12/18 01:56:00;;;;;;;22.25;9.68;;;6.10;99.90;;;;;;5071296;28;20046;-70
2020/12/18 01:58:25;;;;;;;18.55;9.45;;;6.10;99.90;;;;;;5070320;28;20102;-70
2020/12/18 02:00:51;;;;;;;24.02;10.90;;;6.10;99.90;;;;;;5071139;28;20416;-70
2020/12/18 02:03:16;;;;;;;21.50;9.95;;;6.10;99.90;;;;;;5074538;28;20383;-69
2020/12/18 02:05:42;;;;;;;25.27;10.43;;;6.10;99.90;;;;;;5073921;28;20029;-69
2020/12/18 02:08:08;;;;;;;27.20;10.27;;;6.00;99.90;;;;;;5074518;28;20024;-69
2020/12/18 02:10:34;;;;;;;19.42;9.68;;;6.00;99.90;;;;;;5074204;28;20036;-69
2020/12/18 02:13:00;;;;;;;21.23;10.80;;;6.00;99.90;;;;;;5073821;28;20099;-70
2020/12/18 02:15:25;;;;;;;21.58;10.20;;;5.90;99.90;;;;;;5074098;28;20031;-69
2020/12/18 02:17:52;;;;;;;25.90;11.02;;;5.90;99.90;;;;;;5074199;28;20020;-70
2020/12/18 02:20:18;;;;;;;18.30;9.95;;;5.90;99.90;;;;;;5073292;28;20063;-70
2020/12/18 02:22:44;;;;;;;23.83;9.82;;;5.90;99.90;;;;;;5074364;28;20021;-69
2020/12/18 02:25:11;;;;;;;19.60;9.57;;;5.90;99.90;;;;;;5074144;28;20031;-69
2020/12/18 02:27:38;;;;;;;19.63;9.95;;;5.80;99.90;;;;;;5073040;28;20169;-69
2020/12/18 02:30:05;;;;;;;24.48;10.05;;;5.80;99.90;;;;;;5074069;28;20074;-69
2020/12/18 02:32:31;;;;;;;21.98;10.02;;;5.80;99.90;;;;;;5074113;28;20036;-69
2020/12/18 02:34:56;;;;;;;20.00;9.07;;;5.80;99.90;;;;;;5073493;28;20027;-68
2020/12/18 02:37:22;;;;;;;19.05;10.45;;;5.80;99.90;;;;;;5073773;28;20044;-69
2020/12/18 02:39:47;;;;;;;18.73;9.48;;;5.70;99.90;;;;;;5073932;28;20456;-69
2020/12/18 02:42:13;;;;;;;25.55;9.15;;;5.70;99.90;;;;;;5072957;28;20020;-70
2020/12/18 02:44:39;;;;;;;18.08;9.40;;;5.70;99.90;;;;;;5073495;28;20804;-69
2020/12/18 02:47:04;;;;;;;16.98;10.10;;;5.80;99.90;;;;;;5073879;28;20071;-68
2020/12/18 02:49:30;;;;;;;27.48;10.15;;;5.80;99.90;;;;;;5072932;28;20116;-68
2020/12/18 02:51:56;;;;;;;17.08;9.85;;;5.80;99.90;;;;;;5073744;28;20474;-68
2020/12/18 02:54:22;;;;;;;22.05;10.40;;;5.80;99.90;;;;;;5073402;28;20031;-69
2020/12/18 02:56:47;;;;;;;24.55;10.13;;;5.80;99.90;;;;;;5072851;28;20376;-70
2020/12/18 02:59:13;;;;;;;19.65;9.02;;;5.80;99.90;;;;;;5073297;28;20093;-68
2020/12/18 03:01:38;;;;;;;22.17;10.15;;;5.80;99.90;;;;;;5072804;28;20032;-68
2020/12/18 03:04:04;;;;;;;26.38;10.70;;;5.80;99.90;;;;;;5076767;28;20012;-68
2020/12/18 03:06:30;;;;;;;21.33;9.40;;;5.80;99.90;;;;;;5075587;28;20481;-68
2020/12/18 03:08:56;;;;;;;31.42;10.20;;;5.80;99.90;;;;;;5072870;28;20073;-69
2020/12/18 03:11:21;;;;;;;30.70;10.35;;;5.70;99.90;;;;;;5073393;28;20028;-69
2020/12/18 03:13:49;;;;;;;24.13;9.43;;;5.70;99.90;;;;;;5072267;28;20465;-69
2020/12/18 03:16:15;;;;;;;20.30;9.13;;;5.70;99.90;;;;;;5072617;28;20054;-68
2020/12/18 03:18:40;;;;;;;30.35;9.50;;;5.80;99.90;;;;;;5073032;28;20101;-69
2020/12/18 03:21:06;;;;;;;25.98;9.57;;;5.70;99.90;;;;;;5073233;28;20028;-70
2020/12/18 03:23:32;;;;;;;25.45;9.63;;;5.70;99.90;;;;;;5072432;28;20013;-69
2020/12/18 03:25:57;;;;;;;20.30;10.32;;;5.70;99.90;;;;;;5072889;28;20028;-68
2020/12/18 03:28:23;;;;;;;27.77;9.80;;;5.70;99.90;;;;;;5072868;28;20028;-68
2020/12/18 03:30:49;;;;;;;24.00;9.48;;;5.70;99.90;;;;;;5072140;28;20381;-69
2020/12/18 03:33:15;;;;;;;25.75;10.23;;;5.70;99.90;;;;;;5072952;28;20073;-68
2020/12/18 03:35:40;;;;;;;25.13;9.68;;;5.80;99.90;;;;;;5072876;28;20028;-68
2020/12/18 03:38:06;;;;;;;30.42;9.35;;;5.70;99.90;;;;;;5072153;28;20056;-68
2020/12/18 03:40:31;;;;;;;27.58;9.52;;;5.70;99.90;;;;;;5072649;28;20024;-69
2020/12/18 03:42:57;;;;;;;27.73;10.27;;;5.70;99.90;;;;;;5072474;28;20474;-68
2020/12/18 03:45:22;;;;;;;26.75;8.85;;;5.70;99.90;;;;;;5071619;28;20027;-68
2020/12/18 03:47:48;;;;;;;26.98;9.68;;;5.70;99.90;;;;;;5072633;28;20032;-68
2020/12/18 03:50:14;;;;;;;20.08;8.50;;;5.80;99.90;;;;;;5072387;28;20024;-69
2020/12/18 03:52:40;;;;;;;23.65;9.57;;;5.80;99.90;;;;;;5071618;28;20020;-68
2020/12/18 03:55:06;;;;;;;29.35;9.27;;;5.80;99.90;;;;;;5072415;28;20017;-68
2020/12/18 03:57:31;;;;;;;23.27;8.73;;;5.80;99.90;;;;;;5072036;28;20514;-70
2020/12/18 03:59:57;;;;;;;28.25;8.63;;;5.80;99.90;;;;;;5071485;28;20044;-70
2020/12/18 04:02:22;;;;;;;21.35;8.73;;;5.80;99.90;;;;;;5072171;28;20024;-68
2020/12/18 04:04:48;;;;;;;22.63;8.30;;;5.80;99.90;;;;;;5071775;28;20028;-70
2020/12/18 04:07:14;;;;;;;24.50;8.80;;;5.80;99.90;;;;;;5072030;28;20029;-70
2020/12/18 04:09:41;;;;;;;14.80;8.05;;;5.80;99.90;;;;;;5072327;28;20310;-70
2020/12/18 04:12:07;;;;;;;23.10;9.18;;;5.90;99.90;;;;;;5071388;28;20026;-68
2020/12/18 04:14:33;;;;;;;21.23;8.50;;;5.90;99.90;;;;;;5072177;28;20495;-69
2020/12/18 04:17:00;;;;;;;25.08;9.10;;;5.90;99.90;;;;;;5072403;28;20129;-69
2020/12/18 04:19:25;;;;;;;23.40;8.20;;;5.90;99.90;;;;;;5071469;28;20093;-70
2020/12/18 04:21:51;;;;;;;17.33;8.68;;;5.90;99.90;;;;;;5072064;28;20468;-69
2020/12/18 04:24:16;;;;;;;28.98;8.05;;;5.90;99.90;;;;;;5071721;28;20025;-69
2020/12/18 04:26:42;;;;;;;22.50;8.25;;;5.90;99.90;;;;;;5071090;28;20119;-69
2020/12/18 04:29:07;;;;;;;33.78;10.43;;;6.00;99.90;;;;;;5071615;28;20449;-69
2020/12/18 04:31:33;;;;;;;24.42;8.52;;;6.00;99.90;;;;;;5071552;28;20043;-68
2020/12/18 04:33:59;;;;;;;24.55;8.30;;;6.10;99.90;;;;;;5070468;28;20063;-69
2020/12/18 04:36:24;;;;;;;19.52;8.02;;;6.10;99.90;;;;;;5071292;28;20101;-70
2020/12/18 04:38:50;;;;;;;18.98;8.07;;;6.10;99.90;;;;;;5071915;28;20425;-68
2020/12/18 04:41:17;;;;;;;14.63;7.78;;;6.20;99.90;;;;;;5070426;28;20108;-69
2020/12/18 04:43:42;;;;;;;20.75;8.27;;;6.20;99.90;;;;;;5071650;28;20036;-69
2020/12/18 04:46:10;;;;;;;21.85;7.72;;;6.30;99.90;;;;;;5071758;28;20029;-70
2020/12/18 04:48:36;;;;;;;14.27;8.13;;;6.20;99.90;;;;;;5070966;28;20020;-69
2020/12/18 04:51:03;;;;;;;21.13;8.13;;;6.30;99.90;;;;;;5071656;28;20070;-70
2020/12/18 04:53:33;;;;;;;20.98;7.68;;;6.30;99.90;;;;;;5071400;28;20017;-69
2020/12/18 04:56:08;;;;;;;10.77;7.10;;;6.30;99.90;;;;;;5070733;28;20120;-69
2020/12/18 04:58:36;;;;;;;14.77;7.15;;;6.30;99.90;;;;;;5071485;28;20052;-69
2020/12/18 05:01:02;;;;;;;14.88;7.18;;;6.30;99.90;;;;;;5071070;28;20035;-69
2020/12/18 05:03:33;;;;;;;19.65;7.32;;;6.30;99.90;;;;;;5071096;28;20028;-69
2020/12/18 05:05:59;;;;;;;14.63;7.35;;;6.30;99.90;;;;;;5071313;28;20396;-69
2020/12/18 05:08:26;;;;;;;19.77;7.70;;;6.30;99.90;;;;;;5070051;28;20404;-69
2020/12/18 05:10:52;;;;;;;15.15;7.45;;;6.20;99.90;;;;;;5071617;28;20111;-69
2020/12/18 05:13:19;;;;;;;14.98;6.90;;;6.20;99.90;;;;;;5070853;28;20048;-69
2020/12/18 05:15:45;;;;;;;21.65;6.75;;;6.20;99.90;;;;;;5070673;28;20032;-68
2020/12/18 05:18:12;;;;;;;17.05;6.68;;;6.10;99.90;;;;;;5071114;28;20024;-68
2020/12/18 05:20:37;;;;;;;21.65;6.47;;;6.10;99.90;;;;;;5070890;28;20092;-69
2020/12/18 05:23:09;;;;;;;18.38;7.10;;;6.10;99.90;;;;;;5070354;28;20119;-70
2020/12/18 05:25:37;;;;;;;17.42;7.25;;;6.10;99.90;;;;;;5070608;28;20472;-70
2020/12/18 05:28:03;;;;;;;19.95;7.40;;;6.10;99.90;;;;;;5071239;28;20025;-70
2020/12/18 05:30:29;;;;;;;23.65;6.47;;;6.10;99.90;;;;;;5070029;28;20119;-68
2020/12/18 05:32:54;;;;;;;15.57;7.07;;;6.10;99.90;;;;;;5071216;28;20027;-69
2020/12/18 05:35:20;;;;;;;22.50;6.95;;;6.10;99.90;;;;;;5070844;28;20029;-68
2020/12/18 05:37:46;;;;;;;17.05;6.50;;;6.10;99.90;;;;;;5073117;28;20048;-68
2020/12/18 05:40:12;;;;;;;17.23;6.30;;;6.10;99.90;;;;;;5075465;28;20025;-69
2020/12/18 05:42:45;;;;;;;16.52;6.18;;;6.10;99.90;;;;;;5074833;28;20024;-69
2020/12/18 05:45:19;;;;;;;18.13;6.38;;;6.10;99.90;;;;;;5074512;28;20012;-69
2020/12/18 05:47:59;;;;;;;13.80;6.57;;;6.10;99.90;;;;;;5075005;28;20032;-71
2020/12/18 05:50:33;;;;;;;22.75;6.85;;;6.10;99.90;;;;;;5073958;28;20016;-69
2020/12/18 05:53:01;;;;;;;11.07;6.32;;;6.20;99.90;;;;;;5074990;28;20025;-69
2020/12/18 05:55:27;;;;;;;17.48;6.70;;;6.20;99.90;;;;;;5074625;28;20025;-69
2020/12/18 05:57:54;;;;;;;21.65;6.50;;;6.10;99.90;;;;;;5073940;28;20024;-69
2020/12/18 06:00:23;;;;;;;10.05;5.97;;;6.20;99.90;;;;;;5074510;28;20024;-69
2020/12/18 06:02:57;;;;;;;21.85;6.95;;;6.20;99.90;;;;;;5075012;28;20100;-69
2020/12/18 06:05:24;;;;;;;23.70;5.72;;;6.10;99.90;;;;;;5074908;28;20020;-69
2020/12/18 06:07:52;;;;;;;18.80;6.85;;;6.10;99.90;;;;;;5076194;28;20035;-68
2020/12/18 06:10:22;;;;;;;13.05;5.75;;;6.10;99.90;;;;;;5074435;28;20020;-69
2020/12/18 06:12:48;;;;;;;24.65;6.20;;;6.20;99.90;;;;;;5073991;28;20025;-68
2020/12/18 06:15:16;;;;;;;18.15;5.50;;;6.20;99.90;;;;;;5073848;28;20025;-70
2020/12/18 06:17:45;;;;;;;17.73;5.43;;;6.30;99.90;;;;;;5074278;28;20029;-69
2020/12/18 06:20:14;;;;;;;21.02;6.07;;;6.30;99.90;;;;;;5073407;28;20490;-69
2020/12/18 06:22:56;;;;;;;9.23;5.28;;;6.40;99.90;;;;;;5073913;28;20024;-70
2020/12/18 06:25:22;;;;;;;19.45;6.10;;;6.40;99.90;;;;;;5073638;28;20430;-69
2020/12/18 06:27:55;;;;;;;21.40;6.70;;;6.40;99.90;;;;;;5073166;28;20024;-68
2020/12/18 06:30:21;;;;;;;20.00;5.95;;;6.50;99.90;;;;;;5073689;28;20110;-68
2020/12/18 06:32:47;;;;;;;20.92;5.65;;;6.50;99.90;;;;;;5073086;28;20058;-68
2020/12/18 06:35:25;;;;;;;14.93;6.18;;;6.50;99.90;;;;;;5085397;28;20031;-68
2020/12/18 06:37:50;;;;;;;16.90;7.00;;;6.60;99.90;;;;;;5090573;28;20360;-68
2020/12/18 06:40:28;;;;;;;22.98;8.65;;;6.70;99.90;;;;;;5090170;28;20028;-68
2020/12/18 06:42:56;;;;;;;19.27;8.38;;;6.80;99.90;;;;;;5084318;28;20032;-69
2020/12/18 06:45:22;;;;;;;16.35;8.68;;;6.80;99.90;;;;;;5091866;28;20082;-69
2020/12/18 06:47:48;;;;;;;18.38;9.75;;;6.90;99.90;;;;;;5084415;28;20050;-69
2020/12/18 06:50:16;;;;;;;21.45;10.55;;;6.90;99.90;;;;;;5092281;28;20024;-69
2020/12/18 06:52:43;;;;;;;26.15;10.35;;;7.00;99.90;;;;;;5082423;28;20028;-69
2020/12/18 06:55:12;;;;;;;23.58;11.13;;;7.00;99.90;;;;;;5090100;28;20051;-68
2020/12/18 06:57:37;;;;;;;16.52;10.43;;;7.00;99.90;;;;;;5090718;28;20130;-70
2020/12/18 07:00:23;;;;;;;23.77;11.85;;;7.10;99.90;;;;;;5090131;28;20103;-68
2020/12/18 07:02:49;;;;;;;26.35;12.93;;;7.10;99.90;;;;;;5060953;28;20028;-68
2020/12/18 07:05:30;;;;;;;22.73;12.32;;;7.20;99.90;;;;;;5087583;28;20035;-69
2020/12/18 07:07:58;;;;;;;24.95;11.68;;;7.30;99.90;;;;;;5090344;28;20089;-69
2020/12/18 07:10:35;;;;;;;30.13;14.15;;;7.30;99.90;;;;;;5089418;28;20036;-69
2020/12/18 07:13:00;;;;;;;33.67;14.20;;;7.30;99.90;;;;;;5091922;28;20020;-68
2020/12/18 07:15:28;;;;;;;23.67;13.95;;;7.40;99.90;;;;;;5088504;28;20456;-69
2020/12/18 07:17:55;;;;;;;21.98;14.02;;;7.40;99.90;;;;;;5092891;28;20411;-69
2020/12/18 07:20:25;;;;;;;22.95;14.30;;;7.40;99.90;;;;;;5086421;28;20031;-69
2020/12/18 07:22:50;;;;;;;36.72;15.52;;;7.50;99.90;;;;;;5087969;28;20020;-69
2020/12/18 07:25:16;;;;;;;25.50;14.50;;;7.50;99.90;;;;;;5090412;28;20092;-70
2020/12/18 07:27:41;;;;;;;36.22;14.65;;;7.50;99.90;;;;;;5091054;28;20499;-69
2020/12/18 07:30:13;;;;;;;24.33;14.05;;;7.50;99.90;;;;;;5088174;28;20016;-69
2020/12/18 07:32:39;;;;;;;30.25;15.85;;;7.60;99.90;;;;;;5085130;28;20073;-68
2020/12/18 07:35:08;;;;;;;26.60;13.68;;;7.60;99.90;;;;;;5086350;28;20103;-68
2020/12/18 07:37:35;;;;;;;23.55;14.45;;;7.60;99.90;;;;;;5087063;28;20040;-69
2020/12/18 07:40:04;;;;;;;24.45;13.65;;;7.70;99.90;;;;;;5090201;28;20165;-69
2020/12/18 07:42:30;;;;;;;28.67;15.45;;;7.70;99.90;;;;;;5088563;28;20094;-69
2020/12/18 07:45:22;;;;;;;34.20;14.23;;;7.70;99.90;;;;;;5089720;28;20015;-68
2020/12/18 07:47:47;;;;;;;26.60;16.40;;;7.70;99.90;;;;;;5084761;28;20097;-69
2020/12/18 07:50:13;;;;;;;28.42;15.05;;;7.70;99.90;;;;;;5089005;28;20020;-69
2020/12/18 07:52:39;;;;;;;29.65;15.93;;;7.70;99.90;;;;;;5090867;28;20110;-69
2020/12/18 07:55:04;;;;;;;29.67;15.48;;;7.70;99.90;;;;;;5071745;28;20019;-68
2020/12/18 07:57:30;;;;;;;20.02;14.15;;;7.70;99.90;;;;;;5077508;28;20103;-70
2020/12/18 08:00:07;;;;;;;27.80;15.43;;;7.80;99.90;;;;;;5073293;28;20020;-70
2020/12/18 08:02:33;;;;;;;30.63;15.55;;;7.80;99.90;;;;;;5072850;28;20462;-69
2020/12/18 08:05:00;;;;;;;27.75;16.10;;;7.80;99.90;;;;;;5075711;28;20043;-70
2020/12/18 08:07:29;;;;;;;25.10;15.30;;;7.80;99.90;;;;;;5082862;28;20113;-69
2020/12/18 08:10:02;;;;;;;19.08;13.82;;;7.80;99.90;;;;;;5085514;28;20042;-69
2020/12/18 08:12:29;;;;;;;26.92;14.57;;;7.80;99.90;;;;;;5089098;28;20047;-70
2020/12/18 08:15:10;;;;;;;20.90;14.38;;;7.80;99.90;;;;;;5082494;28;20365;-70
2020/12/18 08:17:37;;;;;;;23.63;14.90;;;7.80;99.90;;;;;;5085742;28;20043;-69
2020/12/18 08:20:04;;;;;;;23.35;14.00;;;7.80;99.90;;;;;;5083526;28;20065;-69
2020/12/18 08:22:35;;;;;;;25.48;14.52;;;7.90;99.90;;;;;;5087278;28;20061;-69
2020/12/18 08:25:02;;;;;;;22.05;12.75;;;7.90;99.90;;;;;;5073233;28;20024;-69
2020/12/18 08:27:33;;;;;;;16.95;12.77;;;7.90;99.90;;;;;;5070428;28;20093;-70
2020/12/18 08:30:00;;;;;;;22.33;13.27;;;7.90;99.90;;;;;;5070586;28;20055;-70
2020/12/18 08:32:27;;;;;;;24.90;13.02;;;8.00;99.90;;;;;;5070916;28;20021;-70
2020/12/18 08:35:04;;;;;;;18.55;12.00;;;8.00;99.90;;;;;;5072051;28;20031;-69
2020/12/18 08:37:30;;;;;;;15.35;10.98;;;8.10;99.90;;;;;;5071779;28;20044;-70
2020/12/18 08:39:55;;;;;;;16.85;10.27;;;8.10;99.90;;;;;;5071360;28;20028;-68
2020/12/18 08:42:21;;;;;;;23.15;11.75;;;8.10;99.90;;;;;;5071612;28;20095;-70
2020/12/18 08:44:47;;;;;;;17.00;11.82;;;8.10;99.90;;;;;;5072024;28;20028;-68
2020/12/18 08:47:23;;;;;;;21.85;12.25;;;8.20;99.90;;;;;;5070773;28;20115;-70
2020/12/18 08:49:50;;;;;;;23.98;12.95;;;8.20;99.90;;;;;;5072368;28;20445;-68
2020/12/18 08:52:25;;;;;;;25.50;14.48;;;8.30;99.90;;;;;;5071473;28;20104;-69
2020/12/18 08:55:00;;;;;;;22.52;13.60;;;8.30;99.90;;;;;;5071126;28;20025;-69
2020/12/18 08:57:33;;;;;;;16.52;12.52;;;8.30;99.90;;;;;;5071527;28;20016;-69
2020/12/18 09:00:12;;;;;;;26.90;13.02;;;8.30;99.90;;;;;;5072034;28;20021;-69
2020/12/18 09:02:49;;;;;;;26.05;13.43;;;8.30;99.90;;;;;;5072306;28;20058;-69
2020/12/18 09:05:23;;;;;;;23.50;12.13;;;8.30;99.90;;;;;;5071611;28;20025;-68
2020/12/18 09:07:49;;;;;;;17.30;12.32;;;8.30;99.90;;;;;;5086893;28;20036;-68
2020/12/18 09:10:26;;;;;;;16.98;11.57;;;8.30;99.90;;;;;;5076031;28;20013;-69
2020/12/18 09:12:51;;;;;;;18.58;11.82;;;8.20;99.90;;;;;;5060482;28;20020;-68
2020/12/18 09:15:22;;;;;;;13.32;11.07;;;8.20;99.90;;;;;;5070647;28;20035;-68
2020/12/18 09:18:07;;;;;;;24.95;12.13;;;8.20;99.90;;;;;;5071691;28;20024;-70
2020/12/18 09:20:38;;;;;;;18.92;10.45;;;8.20;99.90;;;;;;5071081;28;20195;-68
2020/12/18 09:23:06;;;;;;;20.55;10.68;;;8.30;99.90;;;;;;5060174;28;20029;-68
2020/12/18 09:25:39;;;;;;;13.60;9.57;;;8.30;99.90;;;;;;5070956;28;20035;-67
2020/12/18 09:28:10;;;;;;;13.27;9.70;;;8.30;99.90;;;;;;5071427;28;20028;-68
2020/12/18 09:30:36;;;;;;;12.60;9.40;;;8.40;99.90;;;;;;5070214;28;20426;-68
2020/12/18 09:33:08;;;;;;;13.90;9.88;;;8.40;99.90;;;;;;5071148;28;20028;-68
2020/12/18 09:35:34;;;;;;;16.17;9.43;;;8.40;99.90;;;;;;5070533;28;20036;-68
2020/12/18 09:38:00;;;;;;;16.50;8.35;;;8.40;99.90;;;;;;5071135;28;20049;-68
2020/12/18 09:40:25;;;;;;;13.32;8.02;;;8.50;99.90;;;;;;5071264;28;20039;-69
2020/12/18 09:42:51;;;;;;;17.42;8.10;;;8.50;99.90;;;;;;5070500;28;20019;-69
2020/12/18 09:45:16;;;;;;;12.93;7.25;;;8.50;99.90;;;;;;5071135;28;20515;-69
2020/12/18 09:47:42;;;;;;;17.20;8.13;;;8.60;99.90;;;;;;5075074;28;20036;-68
2020/12/18 09:50:07;;;;;;;18.23;7.55;;;8.50;99.90;;;;;;5088931;28;20016;-69
2020/12/18 09:52:33;;;;;;;11.38;6.78;;;8.60;99.90;;;;;;5078062;28;20028;-68
2020/12/18 09:54:58;;;;;;;11.27;6.57;;;8.70;99.90;;;;;;5083119;28;20021;-67
2020/12/18 09:57:25;;;;;;;15.07;7.65;;;8.70;99.90;;;;;;5070345;28;20028;-68
2020/12/18 09:59:51;;;;;;;11.18;7.38;;;8.70;99.90;;;;;;5067283;28;20025;-68
2020/12/18 10:02:17;;;;;;;14.50;7.35;;;8.70;99.90;;;;;;5070875;28;20024;-69
2020/12/18 10:04:42;;;;;;;13.02;6.38;;;8.80;99.90;;;;;;5070552;28;20027;-69
2020/12/18 10:07:08;;;;;;;15.80;6.20;;;8.80;99.90;;;;;;5071093;28;20036;-68
2020/12/18 10:09:33;;;;;;;11.88;5.82;;;8.80;99.90;;;;;;5071032;28;20031;-68
2020/12/18 10:11:59;;;;;;;10.10;6.25;;;8.90;99.90;;;;;;5070216;28;20056;-69
2020/12/18 10:14:25;;;;;;;15.52;5.65;;;9.00;99.90;;;;;;5070848;28;20114;-68
2020/12/18 10:16:51;;;;;;;13.63;5.53;;;9.10;99.90;;;;;;5071110;28;20021;-67
2020/12/18 10:19:16;;;;;;;9.88;5.30;;;9.00;99.90;;;;;;5070029;28;20067;-68
2020/12/18 10:21:42;;;;;;;10.30;6.00;;;9.20;99.90;;;;;;5070877;28;20033;-67
2020/12/18 10:24:07;;;;;;;13.80;5.57;;;9.20;99.90;;;;;;5074157;28;20353;-68
2020/12/18 10:26:33;;;;;;;10.48;5.43;;;9.30;99.90;;;;;;5072748;28;20362;-67
2020/12/18 10:28:58;;;;;;;9.10;5.57;;;9.30;99.90;;;;;;5072279;28;20048;-67
2020/12/18 10:31:24;;;;;;;12.07;5.30;;;9.30;99.90;;;;;;5074305;28;20518;-69
2020/12/18 10:33:50;;;;;;;15.77;5.97;;;9.40;99.90;;;;;;5078750;28;20020;-68
2020/12/18 10:36:15;;;;;;;7.70;4.85;;;9.40;99.90;;;;;;5073073;28;20031;-67
2020/12/18 10:38:41;;;;;;;11.25;4.63;;;9.50;99.90;;;;;;5085205;28;20020;-67
2020/12/18 10:41:08;;;;;;;15.30;4.90;;;9.50;99.90;;;;;;5088648;28;20086;-67
2020/12/18 10:43:33;;;;;;;11.25;6.45;;;9.60;99.90;;;;;;5085492;28;20031;-68
2020/12/18 10:45:59;;;;;;;9.45;4.65;;;9.60;99.90;;;;;;5093349;28;20415;-68
2020/12/18 10:48:25;;;;;;;10.77;4.38;;;9.70;99.90;;;;;;5094236;28;20024;-67
2020/12/18 10:50:51;;;;;;;10.90;4.53;;;9.80;99.90;;;;;;5094404;28;20090;-67
2020/12/18 10:53:16;;;;;;;10.40;4.18;;;9.80;99.90;;;;;;5093262;28;20032;-66
2020/12/18 10:55:42;;;;;;;9.60;4.25;;;9.80;99.90;;;;;;5076014;28;20093;-68
2020/12/18 10:58:07;;;;;;;9.35;3.97;;;9.80;99.90;;;;;;5086978;28;20034;-71
2020/12/18 11:00:33;;;;;;;10.38;4.45;;;9.80;99.90;;;;;;5072797;28;20099;-70
2020/12/18 11:02:59;;;;;;;9.57;3.05;;;9.90;99.90;;;;;;5088105;28;20027;-71
2020/12/18 11:05:25;;;;;;;14.02;3.60;;;9.90;99.90;;;;;;5086136;28;20120;-71
2020/12/18 11:07:51;;;;;;;13.60;4.07;;;9.90;99.90;;;;;;5089587;28;20028;-71
2020/12/18 11:10:16;;;;;;;8.52;3.58;;;10.00;99.90;;;;;;5074233;28;20039;-71
2020/12/18 11:12:42;;;;;;;9.07;3.55;;;10.00;99.90;;;;;;5085910;28;20107;-71
2020/12/18 11:15:07;;;;;;;12.13;3.72;;;10.10;99.90;;;;;;5092912;28;20020;-70
2020/12/18 11:17:33;;;;;;;10.63;3.58;;;10.10;99.90;;;;;;5093631;28;20024;-71
2020/12/18 11:19:58;;;;;;;10.75;3.78;;;10.20;99.90;;;;;;5093912;28;20020;-70
2020/12/18 11:22:24;;;;;;;5.85;2.92;;;10.30;99.90;;;;;;5084559;28;20021;-71
2020/12/18 11:24:50;;;;;;;8.07;3.30;;;10.30;99.90;;;;;;5073327;28;20069;-71
2020/12/18 11:27:16;;;;;;;6.80;3.03;;;10.30;99.90;;;;;;5073010;28;20376;-73
2020/12/18 11:29:41;;;;;;;6.97;3.35;;;10.40;99.90;;;;;;5077825;28;20020;-72
2020/12/18 11:32:07;;;;;;;12.73;3.80;;;10.50;99.90;;;;;;5074910;28;20163;-72
2020/12/18 11:34:32;;;;;;;15.98;3.75;;;10.50;99.90;;;;;;5077391;28;20475;-71
2020/12/18 11:36:58;;;;;;;12.38;3.53;;;10.50;99.90;;;;;;5085467;28;20040;-72
2020/12/18 11:39:26;;;;;;;11.23;3.97;;;10.50;99.90;;;;;;5087346;28;20388;-70
2020/12/18 11:41:52;;;;;;;5.25;2.97;;;10.60;99.90;;;;;;5082473;28;20370;-71
2020/12/18 11:44:18;;;;;;;8.35;3.20;;;10.70;99.90;;;;;;5080872;28;20357;-72
2020/12/18 11:46:47;;;;;;;11.75;3.20;;;10.70;99.90;;;;;;5084744;28;20065;-71
2020/12/18 11:49:13;;;;;;;5.53;2.75;;;10.70;99.90;;;;;;5083551;28;20045;-73
2020/12/18 11:51:39;;;;;;;6.07;2.58;;;10.80;99.90;;;;;;5081566;28;20522;-73
2020/12/18 11:54:04;;;;;;;5.45;2.95;;;10.80;99.90;;;;;;5080635;28;20400;-72
2020/12/18 11:56:30;;;;;;;9.55;2.80;;;10.90;99.90;;;;;;5076790;28;20538;-71
2020/12/18 11:58:56;;;;;;;9.25;3.30;;;10.90;99.90;;;;;;5081631;28;20111;-71
2020/12/18 12:01:22;;;;;;;7.47;3.10;;;11.00;99.90;;;;;;5088137;28;20127;-72
2020/12/18 12:03:52;;;;;;;7.43;2.53;;;11.00;99.90;;;;;;5070911;28;20688;-72
2020/12/18 12:06:18;;;;;;;8.70;2.58;;;11.00;99.90;;;;;;5069756;28;20039;-72
2020/12/18 12:08:45;;;;;;;9.88;2.78;;;10.90;99.90;;;;;;5063768;28;20049;-73
2020/12/18 12:11:12;;;;;;;5.78;2.22;;;11.10;99.90;;;;;;5066711;28;20370;-71
2020/12/18 12:13:38;;;;;;;8.07;2.33;;;11.10;99.90;;;;;;5083359;28;20024;-73
2020/12/18 12:16:04;;;;;;;6.35;3.25;;;11.10;99.90;;;;;;5069460;28;20066;-72
2020/12/18 12:18:29;;;;;;;6.65;2.15;;;11.20;99.90;;;;;;5075411;28;20076;-71
2020/12/18 12:20:55;;;;;;;7.13;2.53;;;11.20;99.90;;;;;;5073693;28;20017;-71
2020/12/18 12:23:21;;;;;;;9.20;2.22;;;11.30;99.90;;;;;;5075494;28;20016;-71
2020/12/18 12:25:46;;;;;;;8.93;1.90;;;11.30;99.90;;;;;;5069349;28;20094;-72
2020/12/18 12:28:12;;;;;;;9.93;2.10;;;11.30;99.90;;;;;;5061948;28;20071;-72
2020/12/18 12:30:37;;;;;;;5.50;2.25;;;11.30;99.90;;;;;;5065095;28;20380;-72
2020/12/18 12:33:03;;;;;;;5.68;2.20;;;11.30;99.90;;;;;;5067849;28;20025;-72
2020/12/18 12:35:28;;;;;;;4.85;1.90;;;11.30;99.90;;;;;;5062045;28;20191;-70
2020/12/18 12:37:54;;;;;;;9.95;2.17;;;11.30;99.90;;;;;;5062643;28;20228;-71
2020/12/18 12:40:20;;;;;;;5.95;2.28;;;11.30;99.90;;;;;;5055718;28;20465;-71
2020/12/18 12:42:45;;;;;;;6.00;2.10;;;11.30;99.90;;;;;;5068117;28;20051;-70